createdAt,value
2023-03-25T00:01:38.478Z,100.00
2023-03-25T00:04:11.484Z,100.00
2023-03-25T00:06:45.881Z,100.00
2023-03-25T00:09:18.942Z,100.00
2023-03-25T00:11:52.140Z,100.00
2023-03-25T00:14:26.103Z,100.00
2023-03-25T00:17:01.223Z,100.00
2023-03-25T00:19:35.532Z,100.00
2023-03-25T00:22:09.905Z,100.00
2023-03-25T00:24:42.892Z,100.00
2023-03-25T00:27:17.656Z,100.00
2023-03-25T00:29:50.651Z,100.00
2023-03-25T00:32:24.303Z,100.00
2023-03-25T00:34:57.500Z,100.00
2023-03-25T00:37:31.828Z,100.00
2023-03-25T00:40:06.407Z,100.00
2023-03-25T00:42:44.534Z,100.00
2023-03-25T00:45:17.858Z,100.00
2023-03-25T00:47:51.007Z,100.00
2023-03-25T00:50:26.160Z,100.00
2023-03-25T00:53:01.292Z,100.00
2023-03-25T00:55:34.286Z,100.00
2023-03-25T00:58:07.276Z,100.00
2023-03-25T01:00:40.307Z,100.00
2023-03-25T01:03:13.583Z,100.00
2023-03-25T01:05:46.645Z,100.00
2023-03-25T01:08:25.171Z,100.00
2023-03-25T01:10:58.269Z,100.00
2023-03-25T01:13:31.360Z,100.00
2023-03-25T01:16:08.847Z,100.00
2023-03-25T01:18:41.986Z,100.00
2023-03-25T01:21:15.017Z,100.00
2023-03-25T01:23:49.483Z,100.00
2023-03-25T01:26:22.535Z,100.00
2023-03-25T01:28:55.626Z,100.00
2023-03-25T01:31:30.306Z,100.00
2023-03-25T01:34:03.986Z,100.00
2023-03-25T01:36:39.751Z,100.00
2023-03-25T01:39:18.440Z,100.00
2023-03-25T01:41:52.226Z,100.00
2023-03-25T01:45:21.031Z,100.00
2023-03-25T01:48:02.867Z,100.00
2023-03-25T01:50:38.165Z,100.00
2023-03-25T01:53:12.046Z,100.00
2023-03-25T01:55:47.714Z,100.00
2023-03-25T01:58:22.028Z,100.00
2023-03-25T02:00:55.993Z,100.00
2023-03-25T02:03:30.896Z,100.00
2023-03-25T02:06:09.110Z,100.00
2023-03-25T02:08:42.860Z,100.00
2023-03-25T02:11:17.805Z,100.00
2023-03-25T02:13:50.851Z,100.00
2023-03-25T02:16:31.887Z,100.00
2023-03-25T02:19:46.928Z,100.00
2023-03-25T02:22:51.852Z,100.00
2023-03-25T02:25:51.683Z,100.00
2023-03-25T02:28:36.482Z,100.00
2023-03-25T02:31:44.622Z,100.00
2023-03-25T02:34:39.231Z,100.00
2023-03-25T02:38:17.222Z,100.00
2023-03-25T02:40:57.441Z,100.00
2023-03-25T02:43:36.438Z,100.00
2023-03-25T02:46:14.534Z,100.00
2023-03-25T02:48:55.018Z,100.00
2023-03-25T02:51:31.802Z,100.00
2023-03-25T02:54:12.567Z,100.00
2023-03-25T02:56:48.295Z,100.00
2023-03-25T02:59:22.459Z,100.00
2023-03-25T03:01:59.347Z,100.00
2023-03-25T03:04:32.429Z,100.00
2023-03-25T03:07:05.471Z,100.00
2023-03-25T03:09:46.796Z,100.00
2023-03-25T03:12:41.064Z,100.00
2023-03-25T03:15:28.974Z,100.00
2023-03-25T03:18:16.074Z,100.00
2023-03-25T03:21:00.576Z,100.00
2023-03-25T03:23:39.448Z,100.00
2023-03-25T03:26:22.788Z,100.00
2023-03-25T03:29:05.750Z,100.00
2023-03-25T03:31:56.244Z,100.00
2023-03-25T03:34:44.788Z,100.00
2023-03-25T03:37:23.122Z,100.00
2023-03-25T03:39:58.650Z,100.00
2023-03-25T03:42:37.526Z,100.00
2023-03-25T03:45:18.805Z,100.00
2023-03-25T03:47:56.222Z,100.00
2023-03-25T03:50:32.983Z,100.00
2023-03-25T03:53:12.308Z,100.00
2023-03-25T03:55:52.099Z,100.00
2023-03-25T03:58:32.046Z,100.00
2023-03-25T04:01:10.722Z,100.00
2023-03-25T04:03:48.635Z,100.00
2023-03-25T04:06:25.811Z,100.00
2023-03-25T04:09:05.582Z,99.79
2023-03-25T04:11:44.700Z,100.00
2023-03-25T04:14:19.274Z,99.70
2023-03-25T04:16:53.143Z,97.61
2023-03-25T04:19:27.021Z,97.02
2023-03-25T04:22:00.065Z,95.57
2023-03-25T04:24:33.599Z,97.63
2023-03-25T04:27:06.601Z,97.20
2023-03-25T04:29:41.398Z,100.00
2023-03-25T04:32:15.326Z,100.00
2023-03-25T04:34:48.379Z,100.00
2023-03-25T04:37:22.368Z,100.00
2023-03-25T04:40:00.482Z,100.00
2023-03-25T04:42:37.319Z,100.00
2023-03-25T04:45:14.386Z,100.00
2023-03-25T04:47:54.051Z,100.00
2023-03-25T04:50:30.448Z,100.00
2023-03-25T04:53:03.900Z,100.00
2023-03-25T04:55:37.031Z,100.00
2023-03-25T04:58:11.214Z,100.00
2023-03-25T05:00:50.059Z,100.00
2023-03-25T05:03:24.258Z,100.00
2023-03-25T05:05:57.473Z,100.00
2023-03-25T05:08:31.134Z,100.00
2023-03-25T05:11:04.570Z,100.00
2023-03-25T05:13:37.563Z,100.00
2023-03-25T05:16:12.119Z,100.00
2023-03-25T05:18:45.288Z,100.00
2023-03-25T05:21:18.443Z,100.00
2023-03-25T05:23:52.590Z,100.00
2023-03-25T05:26:25.876Z,100.00
2023-03-25T05:29:01.591Z,100.00
2023-03-25T05:31:36.198Z,100.00
2023-03-25T05:34:09.531Z,100.00
2023-03-25T05:36:43.582Z,100.00
2023-03-25T05:39:17.170Z,100.00
2023-03-25T05:41:50.460Z,100.00
2023-03-25T05:44:23.527Z,100.00
2023-03-25T05:47:01.161Z,100.00
2023-03-25T05:49:34.303Z,100.00
2023-03-25T05:52:09.102Z,100.00
2023-03-25T05:54:42.615Z,100.00
2023-03-25T05:57:15.752Z,100.00
2023-03-25T05:59:48.933Z,100.00
2023-03-25T06:02:23.638Z,100.00
2023-03-25T06:04:56.735Z,100.00
2023-03-25T06:07:29.886Z,100.00
2023-03-25T06:10:04.075Z,100.00
2023-03-25T06:12:38.776Z,100.00
2023-03-25T06:15:14.288Z,100.00
2023-03-25T06:17:48.736Z,100.00
2023-03-25T06:20:21.884Z,100.00
2023-03-25T06:22:54.994Z,99.90
2023-03-25T06:25:28.516Z,98.42
2023-03-25T06:28:03.567Z,94.37
2023-03-25T06:30:36.850Z,93.08
2023-03-25T06:33:13.924Z,92.42
2023-03-25T06:36:08.847Z,90.80
2023-03-25T06:38:42.227Z,90.14
2023-03-25T06:41:17.677Z,91.08
2023-03-25T06:43:51.003Z,92.42
2023-03-25T06:46:24.143Z,91.14
2023-03-25T06:48:58.609Z,90.04
2023-03-25T06:51:32.060Z,89.88
2023-03-25T06:54:05.686Z,88.48
2023-03-25T06:56:38.909Z,87.49
2023-03-25T06:59:12.032Z,87.34
2023-03-25T07:01:45.150Z,88.21
2023-03-25T07:04:19.693Z,86.54
2023-03-25T07:06:53.818Z,86.54
2023-03-25T07:09:27.436Z,87.00
2023-03-25T07:12:00.693Z,84.48
2023-03-25T07:14:33.763Z,83.44
2023-03-25T07:17:06.813Z,84.08
2023-03-25T07:19:41.248Z,83.34
2023-03-25T07:22:14.329Z,83.60
2023-03-25T07:24:47.359Z,82.61
2023-03-25T07:27:20.474Z,81.46
2023-03-25T07:29:53.566Z,80.74
2023-03-25T07:32:26.815Z,80.05
2023-03-25T07:35:01.181Z,80.30
2023-03-25T07:37:34.284Z,80.28
2023-03-25T07:40:09.359Z,79.93
2023-03-25T07:42:42.491Z,79.60
2023-03-25T07:45:15.844Z,78.09
2023-03-25T07:47:50.516Z,81.05
2023-03-25T07:50:25.873Z,82.46
2023-03-25T07:52:59.169Z,84.68
2023-03-25T07:55:32.213Z,87.71
2023-03-25T07:58:05.558Z,89.05
2023-03-25T08:00:39.057Z,90.68
2023-03-25T08:03:13.112Z,90.78
2023-03-25T08:05:49.940Z,91.81
2023-03-25T08:08:23.564Z,90.04
2023-03-25T08:10:56.708Z,88.27
2023-03-25T08:13:30.253Z,87.89
2023-03-25T08:16:03.323Z,83.12
2023-03-25T08:18:37.026Z,81.06
2023-03-25T08:21:11.684Z,81.59
2023-03-25T08:23:44.977Z,77.99
2023-03-25T08:26:18.027Z,77.35
2023-03-25T08:28:51.085Z,75.85
2023-03-25T08:31:24.440Z,76.66
2023-03-25T08:33:57.541Z,75.13
2023-03-25T08:36:32.067Z,76.79
2023-03-25T08:39:09.545Z,74.25
2023-03-25T08:41:42.636Z,73.75
2023-03-25T08:44:15.741Z,76.76
2023-03-25T08:46:48.787Z,74.13
2023-03-25T08:49:21.834Z,73.75
2023-03-25T08:51:57.953Z,73.77
2023-03-25T08:54:31.253Z,73.17
2023-03-25T08:57:04.678Z,71.40
2023-03-25T08:59:37.709Z,71.47
2023-03-25T09:02:12.455Z,69.79
2023-03-25T09:04:46.029Z,68.35
2023-03-25T09:07:20.541Z,68.75
2023-03-25T09:09:53.768Z,69.76
2023-03-25T09:12:26.875Z,71.26
2023-03-25T09:14:59.950Z,73.77
2023-03-25T09:17:33.038Z,77.12
2023-03-25T09:20:08.602Z,80.34
2023-03-25T09:22:45.632Z,84.50
2023-03-25T09:25:19.055Z,86.01
2023-03-25T09:27:52.104Z,85.80
2023-03-25T09:30:25.309Z,84.54
2023-03-25T09:32:58.459Z,85.13
2023-03-25T09:35:31.528Z,86.49
2023-03-25T09:38:06.083Z,88.84
2023-03-25T09:40:42.112Z,89.67
2023-03-25T09:43:37.263Z,90.54
2023-03-25T09:46:10.470Z,92.17
2023-03-25T09:48:45.575Z,95.25
2023-03-25T09:51:25.240Z,97.87
2023-03-25T09:54:05.653Z,98.60
2023-03-25T09:56:42.036Z,95.36
2023-03-25T09:59:20.543Z,96.13
2023-03-25T10:02:03.425Z,96.54
2023-03-25T10:04:55.486Z,95.45
2023-03-25T10:07:54.929Z,95.00
2023-03-25T10:10:37.993Z,96.15
2023-03-25T10:13:20.098Z,95.85
2023-03-25T10:16:01.120Z,92.75
2023-03-25T10:18:57.044Z,92.32
2023-03-25T10:21:39.117Z,90.71
2023-03-25T10:24:19.944Z,87.04
2023-03-25T10:26:59.765Z,83.94
2023-03-25T10:29:40.246Z,87.12
2023-03-25T10:32:19.224Z,85.36
2023-03-25T10:34:56.017Z,84.14
2023-03-25T10:37:35.384Z,85.53
2023-03-25T10:40:21.884Z,80.30
2023-03-25T10:43:11.872Z,79.65
2023-03-25T10:45:46.083Z,75.16
2023-03-25T10:48:25.343Z,76.20
2023-03-25T10:51:05.840Z,74.40
2023-03-25T10:53:39.726Z,72.27
2023-03-25T10:56:16.920Z,73.12
2023-03-25T10:58:55.596Z,73.31
2023-03-25T11:01:36.270Z,75.81
2023-03-25T11:04:13.938Z,73.80
2023-03-25T11:06:54.056Z,69.61
2023-03-25T11:09:30.352Z,68.26
2023-03-25T11:12:07.445Z,68.06
2023-03-25T11:14:42.482Z,68.00
2023-03-25T11:17:21.705Z,67.10
2023-03-25T11:19:59.511Z,64.63
2023-03-25T11:22:37.594Z,64.44
2023-03-25T11:25:20.268Z,69.42
2023-03-25T11:27:57.398Z,72.40
2023-03-25T11:30:31.889Z,74.90
2023-03-25T11:33:09.993Z,77.31
2023-03-25T11:35:49.252Z,79.88
2023-03-25T11:38:24.983Z,80.61
2023-03-25T11:41:07.241Z,81.12
2023-03-25T11:43:41.588Z,83.17
2023-03-25T11:46:17.645Z,85.21
2023-03-25T11:48:51.284Z,86.41
2023-03-25T11:51:28.990Z,82.07
2023-03-25T11:54:07.677Z,78.77
2023-03-25T11:56:45.439Z,75.60
2023-03-25T11:59:25.141Z,76.71
2023-03-25T12:02:05.356Z,73.20
2023-03-25T12:04:38.474Z,72.62
2023-03-25T12:07:16.383Z,73.04
2023-03-25T12:09:56.805Z,68.18
2023-03-25T12:12:43.939Z,68.76
2023-03-25T12:15:28.573Z,68.26
2023-03-25T12:18:20.062Z,67.23
2023-03-25T12:21:06.191Z,68.89
2023-03-25T12:23:48.455Z,69.75
2023-03-25T12:26:30.447Z,70.90
2023-03-25T12:29:17.339Z,66.60
2023-03-25T12:32:13.650Z,66.00
2023-03-25T12:35:01.045Z,67.52
2023-03-25T12:37:46.433Z,68.20
2023-03-25T12:40:38.752Z,68.16
2023-03-25T12:43:16.446Z,73.64
2023-03-25T12:46:10.344Z,77.07
2023-03-25T12:49:02.887Z,80.83
2023-03-25T12:51:48.102Z,83.16
2023-03-25T12:54:38.215Z,80.70
2023-03-25T12:57:25.480Z,78.75
2023-03-25T13:00:26.582Z,75.34
2023-03-25T13:03:42.392Z,76.68
2023-03-25T13:06:30.220Z,72.76
2023-03-25T13:09:08.379Z,74.20
2023-03-25T13:11:45.406Z,71.04
2023-03-25T13:14:24.271Z,70.20
2023-03-25T13:17:01.503Z,66.78
2023-03-25T13:19:41.139Z,69.06
2023-03-25T13:22:20.755Z,73.58
2023-03-25T13:24:57.990Z,75.84
2023-03-25T13:27:34.686Z,76.00
2023-03-25T13:30:18.248Z,76.63
2023-03-25T13:32:54.853Z,76.52
2023-03-25T13:35:39.423Z,77.26
2023-03-25T13:38:18.761Z,75.99
2023-03-25T13:41:06.299Z,71.94
2023-03-25T13:43:49.302Z,71.57
2023-03-25T13:46:28.605Z,70.69
2023-03-25T13:49:07.739Z,72.56
2023-03-25T13:51:42.141Z,73.35
2023-03-25T13:54:23.085Z,68.70
2023-03-25T13:57:41.314Z,67.24
2023-03-25T14:00:48.332Z,65.35
2023-03-25T14:04:10.641Z,64.90
2023-03-25T14:07:30.943Z,64.14
2023-03-25T14:10:41.318Z,67.07
2023-03-25T14:13:19.059Z,66.55
2023-03-25T14:16:00.439Z,67.31
2023-03-25T14:18:34.378Z,64.96
2023-03-25T14:21:26.024Z,63.10
2023-03-25T14:24:07.124Z,62.14
2023-03-25T14:26:47.231Z,60.23
2023-03-25T14:29:33.530Z,60.67
2023-03-25T14:32:32.360Z,58.13
2023-03-25T14:35:50.007Z,57.61
2023-03-25T14:38:59.764Z,57.08
2023-03-25T14:41:58.561Z,60.84
2023-03-25T14:44:33.677Z,62.06
2023-03-25T14:47:30.238Z,65.78
2023-03-25T14:50:30.858Z,70.99
2023-03-25T14:53:06.929Z,77.80
2023-03-25T14:55:48.028Z,82.38
2023-03-25T14:58:25.270Z,83.89
2023-03-25T15:01:04.882Z,85.20
2023-03-25T15:03:42.728Z,85.77
2023-03-25T15:06:19.568Z,87.67
2023-03-25T15:08:56.601Z,86.46
2023-03-25T15:11:35.441Z,86.02
2023-03-25T15:14:15.076Z,84.56
2023-03-25T15:17:03.092Z,84.75
2023-03-25T15:20:28.759Z,82.24
2023-03-25T15:23:36.353Z,79.92
2023-03-25T15:26:15.944Z,79.96
2023-03-25T15:29:32.486Z,75.57
2023-03-25T15:32:24.349Z,75.08
2023-03-25T15:35:36.125Z,75.46
2023-03-25T15:39:00.390Z,73.90
2023-03-25T15:41:57.300Z,74.25
2023-03-25T15:45:07.963Z,72.55
2023-03-25T15:48:03.970Z,72.38
2023-03-25T15:50:52.925Z,72.77
2023-03-25T15:53:46.636Z,70.80
2023-03-25T15:56:24.206Z,69.47
2023-03-25T15:59:05.738Z,67.67
2023-03-25T16:01:45.282Z,67.45
2023-03-25T16:04:24.698Z,67.50
2023-03-25T16:06:59.216Z,66.27
2023-03-25T16:09:33.595Z,64.25
2023-03-25T16:12:11.245Z,62.86
2023-03-25T16:14:45.511Z,64.66
2023-03-25T16:17:22.771Z,63.86
2023-03-25T16:19:57.580Z,60.42
2023-03-25T16:22:33.781Z,58.65
2023-03-25T16:25:15.056Z,57.68
2023-03-25T16:27:53.769Z,57.72
2023-03-25T16:30:30.645Z,58.05
2023-03-25T16:33:17.638Z,58.30
2023-03-25T16:35:58.062Z,58.77
2023-03-25T16:38:32.674Z,59.75
2023-03-25T16:41:13.088Z,59.43
2023-03-25T16:43:46.298Z,58.54
2023-03-25T16:46:23.510Z,59.90
2023-03-25T16:49:08.369Z,60.98
2023-03-25T16:51:42.016Z,60.33
2023-03-25T16:54:29.359Z,61.43
2023-03-25T16:57:02.894Z,60.70
2023-03-25T16:59:38.422Z,61.74
2023-03-25T17:02:27.267Z,62.84
2023-03-25T17:05:15.984Z,62.59
2023-03-25T17:07:52.419Z,63.73
2023-03-25T17:10:28.790Z,63.12
2023-03-25T17:13:10.084Z,62.63
2023-03-25T17:15:43.598Z,63.92
2023-03-25T17:18:18.975Z,64.98
2023-03-25T17:21:00.158Z,63.95
2023-03-25T17:23:37.239Z,65.86
2023-03-25T17:26:12.496Z,65.09
2023-03-25T17:29:00.019Z,66.40
2023-03-25T17:31:36.386Z,66.56
2023-03-25T17:34:13.845Z,68.34
2023-03-25T17:36:50.584Z,67.91
2023-03-25T17:39:26.138Z,68.09
2023-03-25T17:42:01.874Z,68.86
2023-03-25T17:44:37.876Z,67.84
2023-03-25T17:47:16.305Z,68.46
2023-03-25T17:49:49.455Z,68.56
2023-03-25T17:52:23.910Z,68.19
2023-03-25T17:54:56.950Z,69.65
2023-03-25T17:57:29.998Z,70.67
2023-03-25T18:00:05.165Z,70.77
2023-03-25T18:02:38.323Z,70.61
2023-03-25T18:05:12.509Z,70.32
2023-03-25T18:07:47.083Z,69.84
2023-03-25T18:10:23.442Z,71.19
2023-03-25T18:12:56.505Z,71.13
2023-03-25T18:15:30.108Z,70.83
2023-03-25T18:18:03.490Z,71.57
2023-03-25T18:20:38.482Z,71.42
2023-03-25T18:23:12.898Z,72.99
2023-03-25T18:25:46.442Z,72.68
2023-03-25T18:28:19.492Z,72.51
2023-03-25T18:30:55.227Z,74.57
2023-03-25T18:33:32.691Z,74.39
2023-03-25T18:36:07.110Z,76.00
2023-03-25T18:38:42.087Z,74.45
2023-03-25T18:41:17.197Z,75.24
2023-03-25T18:43:50.420Z,75.36
2023-03-25T18:46:23.524Z,76.21
2023-03-25T18:49:02.232Z,75.67
2023-03-25T18:51:37.371Z,73.49
2023-03-25T18:54:12.190Z,71.67
2023-03-25T18:56:45.513Z,72.41
2023-03-25T18:59:20.643Z,73.39
2023-03-25T19:01:53.747Z,72.59
2023-03-25T19:04:27.247Z,71.78
2023-03-25T19:07:01.152Z,71.07
2023-03-25T19:09:35.556Z,70.96
2023-03-25T19:12:08.712Z,69.39
2023-03-25T19:14:41.780Z,70.01
2023-03-25T19:17:14.895Z,69.65
2023-03-25T19:19:49.524Z,68.69
2023-03-25T19:22:24.714Z,68.72
2023-03-25T19:24:59.509Z,68.82
2023-03-25T19:27:32.548Z,68.60
2023-03-25T19:30:07.658Z,68.55
2023-03-25T19:32:42.639Z,69.87
2023-03-25T19:35:17.766Z,70.66
2023-03-25T19:37:51.937Z,69.17
2023-03-25T19:40:29.089Z,69.50
2023-03-25T19:43:05.238Z,69.41
2023-03-25T19:45:38.325Z,69.81
2023-03-25T19:48:11.498Z,70.09
2023-03-25T19:50:44.550Z,70.26
2023-03-25T19:53:17.651Z,69.99
2023-03-25T19:55:52.615Z,70.75
2023-03-25T19:58:25.844Z,70.18
2023-03-25T20:00:58.956Z,69.63
2023-03-25T20:03:32.846Z,71.32
2023-03-25T20:06:07.229Z,71.93
2023-03-25T20:08:40.321Z,74.49
2023-03-25T20:11:15.322Z,75.92
2023-03-25T20:13:49.255Z,76.09
2023-03-25T20:16:22.487Z,75.81
2023-03-25T20:18:55.800Z,75.74
2023-03-25T20:21:28.995Z,75.37
2023-03-25T20:24:02.060Z,76.46
2023-03-25T20:26:36.915Z,75.94
2023-03-25T20:29:09.926Z,75.41
2023-03-25T20:31:43.037Z,74.67
2023-03-25T20:34:16.286Z,75.24
2023-03-25T20:36:49.941Z,74.92
2023-03-25T20:39:24.732Z,74.77
2023-03-25T20:41:59.123Z,74.04
2023-03-25T20:44:33.435Z,73.86
2023-03-25T20:47:07.631Z,75.09
2023-03-25T20:49:40.710Z,73.78
2023-03-25T20:52:13.983Z,73.38
2023-03-25T20:54:49.330Z,73.70
2023-03-25T20:57:24.129Z,72.68
2023-03-25T20:59:58.123Z,72.50
2023-03-25T21:02:31.487Z,71.79
2023-03-25T21:05:05.618Z,72.91
2023-03-25T21:07:40.058Z,71.92
2023-03-25T21:10:13.209Z,73.32
2023-03-25T21:12:47.867Z,73.71
2023-03-25T21:15:21.740Z,74.22
2023-03-25T21:17:54.910Z,73.60
2023-03-25T21:20:28.841Z,74.52
2023-03-25T21:23:02.820Z,74.02
2023-03-25T21:25:36.034Z,75.16
2023-03-25T21:28:10.450Z,75.17
2023-03-25T21:30:43.815Z,74.57
2023-03-25T21:33:16.816Z,75.44
2023-03-25T21:35:53.696Z,75.54
2023-03-25T21:38:28.846Z,75.86
2023-03-25T21:41:05.352Z,74.56
2023-03-25T21:43:42.213Z,73.24
2023-03-25T21:46:15.654Z,72.64
2023-03-25T21:48:50.468Z,72.74
2023-03-25T21:51:26.381Z,72.54
2023-03-25T21:54:00.555Z,72.34
2023-03-25T21:56:34.836Z,72.36
2023-03-25T21:59:10.301Z,73.23
2023-03-25T22:01:43.348Z,72.93
2023-03-25T22:04:17.863Z,72.89
2023-03-25T22:06:50.934Z,69.72
2023-03-25T22:09:24.122Z,71.43
2023-03-25T22:11:57.138Z,71.81
2023-03-25T22:14:31.560Z,71.03
2023-03-25T22:17:04.621Z,72.33
2023-03-25T22:19:37.746Z,71.97
2023-03-25T22:22:11.117Z,72.25
2023-03-25T22:24:44.901Z,73.62
2023-03-25T22:27:18.094Z,74.80
2023-03-25T22:29:52.490Z,75.87
2023-03-25T22:32:27.275Z,79.22
2023-03-25T22:35:00.532Z,81.09
2023-03-25T22:37:36.826Z,83.03
2023-03-25T22:40:11.798Z,85.20
2023-03-25T22:42:44.849Z,85.71
2023-03-25T22:45:20.008Z,85.52
2023-03-25T22:47:53.076Z,87.17
2023-03-25T22:50:26.088Z,87.82
2023-03-25T22:52:59.123Z,89.60
2023-03-25T22:55:33.325Z,90.61
2023-03-25T22:58:06.426Z,91.05
2023-03-25T23:00:40.864Z,90.77
2023-03-25T23:03:13.996Z,90.63
2023-03-25T23:05:57.602Z,90.30
2023-03-25T23:08:35.143Z,91.20
2023-03-25T23:11:11.353Z,92.18
2023-03-25T23:13:46.748Z,92.38
2023-03-25T23:16:25.304Z,93.74
2023-03-25T23:18:59.327Z,95.28
2023-03-25T23:21:33.658Z,96.57
2023-03-25T23:24:07.685Z,98.75
2023-03-25T23:26:42.144Z,99.93
2023-03-25T23:29:15.495Z,100.00
2023-03-25T23:31:49.951Z,100.00
2023-03-25T23:34:23.183Z,100.00
2023-03-25T23:36:56.347Z,100.00
2023-03-25T23:39:29.440Z,100.00
2023-03-25T23:42:02.485Z,100.00
2023-03-25T23:44:35.656Z,100.00
2023-03-25T23:47:09.978Z,100.00
2023-03-25T23:49:44.216Z,100.00
2023-03-25T23:52:17.346Z,100.00
2023-03-25T23:54:50.469Z,100.00
2023-03-25T23:57:23.460Z,100.00
2023-03-25T23:59:56.686Z,100.00
